Time;durP1;ratioP1;P1;durP2;ratioP2;P2;SDS_P1;SDS_P2;PMS_P1;PMS_P2;Temp;Humidity;BMP_temperature;BMP_pressure;BME280_temperature;BME280_humidity;BME280_pressure;Samples;Min_cycle;Max_cycle;Signal;HPM_P1;HPM_P2
2023/04/06 00:01:36;;;;;;;10.93;7.10;;;1.00;1.00;;;;;;5017373;28;20179;-50
2023/04/06 00:04:01;;;;;;;16.10;8.00;;;0.90;1.00;;;;;;5017257;28;20903;-50
2023/04/06 00:06:27;;;;;;;15.63;7.90;;;1.00;1.00;;;;;;5016905;28;20184;-50
2023/04/06 00:08:53;;;;;;;12.20;7.93;;;0.90;1.00;;;;;;5017115;28;20261;-50
2023/04/06 00:11:18;;;;;;;13.63;7.80;;;0.90;1.00;;;;;;5016923;28;20190;-50
2023/04/06 00:13:45;;;;;;;12.90;7.87;;;0.90;1.00;;;;;;5017232;28;20219;-50
2023/04/06 00:16:11;;;;;;;13.53;7.13;;;0.90;1.00;;;;;;5016906;28;20184;-51
2023/04/06 00:18:36;;;;;;;11.10;7.50;;;0.90;1.00;;;;;;5017301;28;20422;-50
2023/04/06 00:21:02;;;;;;;13.87;7.97;;;0.90;1.00;;;;;;5016881;28;20621;-51
2023/04/06 00:23:28;;;;;;;13.93;8.70;;;0.80;1.00;;;;;;5016695;28;20192;-50
2023/04/06 00:25:54;;;;;;;13.90;7.67;;;0.80;1.00;;;;;;5016444;28;20405;-50
2023/04/06 00:28:25;;;;;;;14.90;7.83;;;0.80;1.00;;;;;;5016579;28;20362;-51
2023/04/06 00:30:52;;;;;;;11.67;7.63;;;0.80;1.00;;;;;;5016672;28;20283;-50
2023/04/06 00:33:21;;;;;;;11.60;7.10;;;0.80;6.80;;;;;;5016723;28;20539;-50
2023/04/06 00:35:47;;;;;;;12.43;7.80;;;0.70;9.90;;;;;;5016917;28;20441;-51
2023/04/06 00:38:14;;;;;;;13.17;7.67;;;0.70;30.00;;;;;;5016322;28;20987;-50
2023/04/06 00:40:40;;;;;;;14.63;8.00;;;0.80;58.50;;;;;;5016364;28;20266;-50
2023/04/06 00:43:06;;;;;;;10.10;7.33;;;0.80;82.50;;;;;;5016390;28;20505;-50
2023/04/06 00:45:33;;;;;;;13.90;7.37;;;0.80;99.90;;;;;;5016541;28;20294;-51
2023/04/06 00:47:59;;;;;;;17.00;8.50;;;0.90;99.90;;;;;;5016303;28;20428;-51
2023/04/06 00:50:25;;;;;;;15.73;7.90;;;0.80;99.90;;;;;;5014925;28;20455;-51
2023/04/06 00:52:50;;;;;;;11.60;7.80;;;0.80;99.90;;;;;;5016298;28;20446;-51
2023/04/06 00:55:17;;;;;;;11.63;7.67;;;0.80;99.90;;;;;;5016458;28;20191;-50
2023/04/06 00:57:43;;;;;;;11.80;7.40;;;0.80;99.90;;;;;;5016147;28;20265;-51
2023/04/06 01:00:09;;;;;;;12.60;7.60;;;0.80;99.90;;;;;;5016046;28;20455;-51
2023/04/06 01:02:35;;;;;;;10.77;7.60;;;0.80;99.90;;;;;;5015983;28;20418;-50
2023/04/06 01:05:01;;;;;;;14.33;7.57;;;0.80;99.90;;;;;;5016229;28;20432;-51
2023/04/06 01:07:27;;;;;;;12.27;7.47;;;0.70;99.90;;;;;;5015840;28;20458;-50
2023/04/06 01:09:56;;;;;;;11.97;7.83;;;0.70;99.90;;;;;;5015895;28;20498;-50
2023/04/06 01:12:21;;;;;;;11.83;7.63;;;0.70;99.90;;;;;;5015963;28;20186;-51
2023/04/06 01:14:47;;;;;;;13.80;7.93;;;0.70;99.90;;;;;;5015587;28;20434;-51
2023/04/06 01:17:13;;;;;;;10.87;7.27;;;0.70;99.90;;;;;;5015975;28;20188;-50
2023/04/06 01:19:40;;;;;;;11.90;7.37;;;0.70;99.90;;;;;;5015679;28;20425;-50
2023/04/06 01:22:06;;;;;;;16.20;7.53;;;0.60;99.90;;;;;;5015722;28;20199;-50
2023/04/06 01:24:33;;;;;;;21.93;7.93;;;0.60;99.90;;;;;;5015703;28;20411;-51
2023/04/06 01:26:59;;;;;;;12.63;7.40;;;0.60;99.90;;;;;;5015951;28;20415;-51
2023/04/06 01:29:24;;;;;;;11.97;7.67;;;0.60;99.90;;;;;;5015405;28;20462;-51
2023/04/06 01:31:50;;;;;;;12.87;7.07;;;0.60;99.90;;;;;;5015718;28;20329;-50
2023/04/06 01:34:16;;;;;;;11.00;6.90;;;0.60;99.90;;;;;;5015242;28;20199;-51
2023/04/06 01:36:42;;;;;;;11.60;7.60;;;0.70;99.90;;;;;;5015403;28;20411;-50
2023/04/06 01:39:08;;;;;;;18.03;8.30;;;0.70;99.90;;;;;;5015340;28;20631;-51
2023/04/06 01:41:33;;;;;;;17.43;7.13;;;0.60;99.90;;;;;;5015165;28;20411;-51
2023/04/06 01:43:59;;;;;;;13.77;8.17;;;0.60;99.90;;;;;;5014832;28;20686;-50
2023/04/06 01:46:26;;;;;;;13.70;7.90;;;0.60;99.90;;;;;;5015343;28;20180;-50
2023/04/06 01:48:51;;;;;;;12.20;7.57;;;0.60;99.90;;;;;;5015251;28;20455;-50
2023/04/06 01:51:17;;;;;;;14.83;7.63;;;0.60;99.90;;;;;;5015215;28;20451;-51
2023/04/06 01:53:43;;;;;;;12.73;7.57;;;0.60;99.90;;;;;;5015142;28;20235;-50
2023/04/06 01:56:09;;;;;;;16.27;8.03;;;0.60;99.90;;;;;;5014808;28;20684;-50
2023/04/06 01:58:35;;;;;;;14.10;7.50;;;0.60;99.90;;;;;;5013526;28;20274;-49
2023/04/06 02:01:00;;;;;;;11.80;8.10;;;0.60;99.90;;;;;;5014390;28;20422;-50
2023/04/06 02:03:26;;;;;;;10.90;7.60;;;0.60;99.90;;;;;;5014644;28;20454;-50
2023/04/06 02:05:51;;;;;;;10.20;7.30;;;0.60;1.00;;;;;;5015061;28;20230;-50
2023/04/06 02:08:17;;;;;;;13.37;8.07;;;0.60;1.00;;;;;;5014783;28;20235;-50
2023/04/06 02:10:43;;;;;;;15.57;8.57;;;0.60;1.00;;;;;;5014757;28;20199;-50
2023/04/06 02:13:08;;;;;;;13.57;7.50;;;0.60;1.00;;;;;;5014765;28;20274;-49
2023/04/06 02:15:34;;;;;;;15.00;8.33;;;0.70;1.00;;;;;;5014782;28;20582;-49
2023/04/06 02:18:00;;;;;;;9.87;7.53;;;0.60;1.00;;;;;;5014590;28;20187;-50
2023/04/06 02:20:26;;;;;;;13.70;8.20;;;0.60;1.00;;;;;;5014184;28;20184;-50
2023/04/06 02:22:51;;;;;;;12.57;8.80;;;0.70;1.00;;;;;;5014190;28;20501;-50
2023/04/06 02:25:17;;;;;;;17.53;9.00;;;0.60;1.00;;;;;;5014354;28;20232;-50
2023/04/06 02:27:43;;;;;;;12.33;7.70;;;0.60;1.00;;;;;;5014487;28;20190;-50
2023/04/06 02:30:09;;;;;;;15.27;9.47;;;0.60;1.00;;;;;;5014436;28;20212;-49
2023/04/06 02:32:34;;;;;;;15.73;9.57;;;0.60;1.00;;;;;;5014290;28;20187;-50
2023/04/06 02:35:00;;;;;;;17.50;9.80;;;0.60;1.00;;;;;;5014512;28;20906;-50
2023/04/06 02:37:26;;;;;;;24.10;10.33;;;0.60;1.00;;;;;;5013964;28;20183;-50
2023/04/06 02:39:52;;;;;;;20.23;8.97;;;0.60;1.00;;;;;;5014404;28;20199;-50
2023/04/06 02:42:17;;;;;;;13.23;8.77;;;0.60;1.00;;;;;;5014313;28;20188;-50
2023/04/06 02:44:43;;;;;;;17.40;9.53;;;0.60;1.00;;;;;;5014053;28;20241;-50
2023/04/06 02:47:09;;;;;;;16.80;10.30;;;0.70;48.60;;;;;;5013922;28;20191;-50
2023/04/06 02:49:35;;;;;;;13.53;8.67;;;0.70;92.80;;;;;;5014139;28;20211;-50
2023/04/06 02:52:01;;;;;;;15.20;9.50;;;0.70;90.30;;;;;;5013826;28;20424;-50
2023/04/06 02:54:27;;;;;;;14.57;9.30;;;0.60;99.90;;;;;;5013839;28;20911;-50
2023/04/06 02:56:52;;;;;;;14.97;9.87;;;0.70;99.90;;;;;;5014111;28;20452;-51
2023/04/06 02:59:18;;;;;;;13.23;8.40;;;0.70;99.90;;;;;;5014267;28;20194;-51
2023/04/06 03:01:43;;;;;;;15.80;8.73;;;0.70;99.90;;;;;;5014062;28;20770;-51
2023/04/06 03:04:09;;;;;;;14.00;9.23;;;0.70;99.90;;;;;;5013941;28;20188;-50
2023/04/06 03:06:35;;;;;;;15.50;9.60;;;0.70;99.90;;;;;;5013952;28;20286;-50
2023/04/06 03:09:00;;;;;;;15.37;9.10;;;0.70;1.00;;;;;;5014102;28;20229;-50
2023/04/06 03:11:26;;;;;;;13.40;8.43;;;0.80;1.00;;;;;;5013533;28;20188;-50
2023/04/06 03:13:52;;;;;;;19.20;9.67;;;0.80;1.00;;;;;;5013543;28;20191;-51
2023/04/06 03:16:18;;;;;;;16.17;8.60;;;0.80;1.00;;;;;;5013826;28;20184;-51
2023/04/06 03:18:44;;;;;;;13.47;8.80;;;0.80;99.90;;;;;;5014041;28;20188;-50
2023/04/06 03:21:10;;;;;;;15.33;9.10;;;0.90;99.90;;;;;;5013520;28;20192;-50
2023/04/06 03:23:36;;;;;;;19.40;9.80;;;1.00;34.20;;;;;;5013747;28;20419;-50
2023/04/06 03:26:02;;;;;;;17.20;9.10;;;1.00;1.00;;;;;;5013729;28;20174;-51
2023/04/06 03:28:28;;;;;;;18.30;10.03;;;1.10;1.00;;;;;;5013642;28;20206;-50
2023/04/06 03:30:54;;;;;;;16.60;8.83;;;1.20;1.00;;;;;;5013517;28;20910;-50
2023/04/06 03:33:20;;;;;;;17.93;9.60;;;1.20;1.00;;;;;;5013642;28;20192;-51
2023/04/06 03:35:45;;;;;;;18.00;9.80;;;1.20;1.00;;;;;;5013470;28;20736;-51
2023/04/06 03:38:11;;;;;;;15.20;9.50;;;1.20;1.00;;;;;;5013982;28;20208;-51
2023/04/06 03:40:37;;;;;;;14.10;10.20;;;1.30;1.00;;;;;;5013694;28;20211;-51
2023/04/06 03:43:04;;;;;;;15.77;9.67;;;1.30;1.00;;;;;;5013389;28;20691;-51
2023/04/06 03:45:29;;;;;;;13.93;9.03;;;1.20;1.00;;;;;;5013472;28;20239;-51
2023/04/06 03:47:55;;;;;;;17.60;9.40;;;1.20;1.00;;;;;;5013125;28;20931;-51
2023/04/06 03:50:20;;;;;;;14.50;10.10;;;1.10;1.00;;;;;;5012990;28;20228;-51
2023/04/06 03:52:46;;;;;;;17.77;10.20;;;1.10;99.90;;;;;;5013348;28;20188;-51
2023/04/06 03:55:12;;;;;;;14.40;10.10;;;1.00;99.90;;;;;;5013044;28;20715;-51
2023/04/06 03:57:37;;;;;;;19.53;10.20;;;0.90;99.90;;;;;;5013611;28;20177;-51
2023/04/06 04:00:04;;;;;;;17.90;10.77;;;0.90;1.00;;;;;;5013498;28;20570;-52
2023/04/06 04:02:29;;;;;;;14.70;10.50;;;0.90;1.00;;;;;;5013583;28;20540;-51
2023/04/06 04:04:55;;;;;;;15.30;10.40;;;0.80;1.00;;;;;;5013296;28;20415;-51
2023/04/06 04:07:21;;;;;;;14.83;10.20;;;0.80;1.00;;;;;;5013437;28;20210;-51
2023/04/06 04:09:46;;;;;;;16.30;10.00;;;0.80;1.00;;;;;;5013078;28;20211;-51
2023/04/06 04:12:14;;;;;;;16.17;10.33;;;0.70;1.00;;;;;;5013547;28;20207;-51
2023/04/06 04:14:40;;;;;;;12.90;10.03;;;0.70;1.00;;;;;;5013664;28;20187;-51
2023/04/06 04:17:05;;;;;;;19.93;11.87;;;0.70;78.70;;;;;;5012997;28;20986;-51
2023/04/06 04:19:31;;;;;;;20.00;11.57;;;0.70;99.90;;;;;;5013418;28;20192;-51
2023/04/06 04:21:56;;;;;;;16.60;10.47;;;0.70;99.90;;;;;;5013009;28;20615;-51
2023/04/06 04:24:22;;;;;;;16.53;10.70;;;0.60;96.20;;;;;;5015176;28;20176;-51
2023/04/06 04:26:48;;;;;;;20.83;11.07;;;0.60;99.90;;;;;;5016617;28;20183;-51
2023/04/06 04:29:13;;;;;;;15.77;10.90;;;0.50;99.90;;;;;;5016860;28;20211;-50
2023/04/06 04:31:39;;;;;;;17.33;11.90;;;0.50;99.90;;;;;;5016502;28;20262;-51
2023/04/06 04:34:06;;;;;;;22.10;12.73;;;0.50;99.90;;;;;;5016247;28;20560;-52
2023/04/06 04:36:32;;;;;;;18.33;11.53;;;0.50;99.90;;;;;;5016792;28;20541;-51
2023/04/06 04:38:57;;;;;;;24.93;12.00;;;0.40;99.90;;;;;;5016412;28;20429;-51
2023/04/06 04:41:23;;;;;;;19.50;11.60;;;0.50;1.00;;;;;;5016670;28;20523;-51
2023/04/06 04:43:49;;;;;;;19.40;12.27;;;0.50;99.90;;;;;;5016166;28;20184;-52
2023/04/06 04:46:15;;;;;;;23.67;12.50;;;0.50;1.00;;;;;;5016609;28;20176;-51
2023/04/06 04:48:40;;;;;;;19.10;13.00;;;0.50;99.90;;;;;;5015938;28;20731;-51
2023/04/06 04:51:06;;;;;;;18.30;11.73;;;0.50;99.90;;;;;;5016196;28;20196;-51
2023/04/06 04:53:32;;;;;;;23.40;12.40;;;0.50;1.00;;;;;;5016295;28;20225;-51
2023/04/06 04:55:57;;;;;;;18.77;12.17;;;0.50;1.00;;;;;;5016181;28;20725;-51
2023/04/06 04:58:23;;;;;;;19.13;12.50;;;0.50;1.00;;;;;;5016335;28;20270;-51
2023/04/06 05:00:49;;;;;;;19.37;12.60;;;0.50;1.00;;;;;;5016049;28;20652;-51
2023/04/06 05:03:20;;;;;;;19.90;12.10;;;0.50;1.00;;;;;;5015783;28;20180;-51
2023/04/06 05:05:46;;;;;;;16.57;12.10;;;0.50;1.00;;;;;;5015475;28;20231;-52
2023/04/06 05:08:12;;;;;;;21.07;12.93;;;0.50;1.00;;;;;;5016013;28;20419;-52
2023/04/06 05:10:38;;;;;;;15.90;11.43;;;0.50;1.00;;;;;;5015796;28;20568;-51
2023/04/06 05:13:03;;;;;;;18.13;11.90;;;0.50;99.90;;;;;;5016021;28;20412;-51
2023/04/06 05:15:29;;;;;;;19.37;10.90;;;0.50;99.90;;;;;;5014279;28;20187;-51
2023/04/06 05:17:55;;;;;;;16.90;10.80;;;0.50;99.90;;;;;;5015636;28;20274;-51
2023/04/06 05:20:20;;;;;;;18.53;11.70;;;0.50;99.90;;;;;;5015662;28;20196;-51
2023/04/06 05:22:46;;;;;;;17.33;11.60;;;0.40;99.90;;;;;;5015524;28;20425;-49
2023/04/06 05:25:13;;;;;;;22.40;12.30;;;0.40;99.90;;;;;;5015450;28;20647;-49
2023/04/06 05:27:39;;;;;;;18.10;12.07;;;0.50;99.90;;;;;;5016018;28;20266;-50
2023/04/06 05:30:06;;;;;;;18.17;11.77;;;0.50;1.00;;;;;;5015639;28;20459;-50
2023/04/06 05:32:32;;;;;;;26.90;12.97;;;0.60;1.00;;;;;;5015281;28;20836;-50
2023/04/06 05:34:57;;;;;;;18.80;11.93;;;0.70;99.90;;;;;;5014852;28;20443;-50
2023/04/06 05:37:23;;;;;;;20.83;12.20;;;0.80;99.90;;;;;;5015564;28;20722;-51
2023/04/06 05:39:49;;;;;;;19.03;12.03;;;0.80;7.40;;;;;;5015369;28;20215;-50
2023/04/06 05:42:15;;;;;;;15.63;11.40;;;0.90;1.00;;;;;;5015268;28;20204;-50
2023/04/06 05:44:41;;;;;;;18.40;11.27;;;0.90;99.90;;;;;;5015283;28;20518;-50
2023/04/06 05:47:06;;;;;;;19.13;13.00;;;0.90;99.90;;;;;;5015529;28;20419;-51
2023/04/06 05:49:32;;;;;;;19.40;12.73;;;1.00;99.90;;;;;;5015479;28;20603;-50
2023/04/06 05:51:59;;;;;;;19.53;12.80;;;1.10;99.90;;;;;;5015234;28;20339;-50
2023/04/06 05:54:25;;;;;;;20.20;12.93;;;1.20;17.70;;;;;;5015042;28;20431;-50
2023/04/06 05:56:50;;;;;;;22.73;13.90;;;1.40;1.00;;;;;;5015238;28;20238;-51
2023/04/06 05:59:16;;;;;;;19.77;12.83;;;1.50;1.00;;;;;;5014447;28;20190;-50
2023/04/06 06:01:41;;;;;;;21.40;12.87;;;1.60;99.90;;;;;;5015341;28;20191;-50
2023/04/06 06:04:07;;;;;;;20.07;12.47;;;1.70;99.90;;;;;;5014750;28;20210;-50
2023/04/06 06:06:33;;;;;;;22.97;13.00;;;1.80;52.30;;;;;;5014999;28;20633;-51
2023/04/06 06:09:00;;;;;;;22.43;13.23;;;2.00;1.00;;;;;;5014744;28;20208;-50
2023/04/06 06:11:26;;;;;;;18.90;12.40;;;2.10;99.90;;;;;;5014863;28;20247;-50
2023/04/06 06:13:52;;;;;;;20.70;13.30;;;2.40;23.90;;;;;;5015001;28;20446;-49
2023/04/06 06:16:19;;;;;;;18.70;12.53;;;2.70;1.00;;;;;;5014916;28;20938;-50
2023/04/06 06:18:44;;;;;;;26.20;13.80;;;3.00;99.90;;;;;;4996789;28;20189;-50
2023/04/06 06:21:12;;;;;;;19.20;12.70;;;3.20;99.90;;;;;;5014325;28;20980;-50
2023/04/06 06:23:38;;;;;;;21.17;12.20;;;3.50;99.90;;;;;;5014679;28;20231;-51
2023/04/06 06:26:04;;;;;;;18.30;12.53;;;3.80;99.90;;;;;;5014497;28;20504;-51
2023/04/06 06:28:30;;;;;;;23.73;12.60;;;4.10;93.70;;;;;;5014487;28;20493;-50
2023/04/06 06:30:55;;;;;;;17.73;10.97;;;4.30;8.60;;;;;;5014133;28;20435;-49
2023/04/06 06:33:21;;;;;;;22.70;11.90;;;4.60;1.00;;;;;;5014209;28;20281;-48
2023/04/06 06:35:47;;;;;;;19.37;12.00;;;4.90;1.00;;;;;;5014250;28;20269;-49
2023/04/06 06:38:12;;;;;;;19.50;11.83;;;5.20;1.00;;;;;;5014228;28;20186;-50
2023/04/06 06:40:38;;;;;;;19.80;12.47;;;5.50;1.00;;;;;;5014397;28;20190;-50
2023/04/06 06:43:03;;;;;;;18.83;11.53;;;5.70;1.00;;;;;;5014380;28;20187;-50
2023/04/06 06:45:29;;;;;;;17.57;11.50;;;6.00;1.00;;;;;;5013643;28;20758;-50
2023/04/06 06:47:55;;;;;;;19.20;11.40;;;6.30;1.00;;;;;;5014173;28;20193;-50
2023/04/06 06:50:20;;;;;;;18.80;11.47;;;6.50;1.00;;;;;;5013977;28;20211;-50
2023/04/06 06:52:46;;;;;;;17.60;11.80;;;6.70;1.00;;;;;;5014184;28;20662;-50
2023/04/06 06:55:12;;;;;;;18.70;10.30;;;7.10;1.00;;;;;;5013844;28;20554;-50
2023/04/06 06:57:38;;;;;;;19.57;10.70;;;7.40;1.00;;;;;;5014030;28;20190;-49
2023/04/06 07:00:05;;;;;;;23.10;10.67;;;7.60;1.00;;;;;;5013920;28;20524;-49
2023/04/06 07:02:31;;;;;;;25.90;11.03;;;7.80;1.00;;;;;;5013710;28;20434;-50
2023/04/06 07:04:56;;;;;;;19.70;9.60;;;7.70;1.00;;;;;;5013968;28;20504;-50
2023/04/06 07:07:22;;;;;;;18.27;10.00;;;7.70;1.00;;;;;;5013758;28;20186;-50
2023/04/06 07:09:48;;;;;;;18.60;9.97;;;8.10;1.00;;;;;;5013565;28;20458;-50
2023/04/06 07:12:14;;;;;;;23.23;10.37;;;8.50;1.00;;;;;;5014016;28;20194;-50
2023/04/06 07:14:39;;;;;;;16.27;9.43;;;8.70;1.00;;;;;;5013565;28;20197;-49
2023/04/06 07:17:05;;;;;;;13.87;8.50;;;8.80;1.00;;;;;;5013829;28;20189;-51
2023/04/06 07:19:31;;;;;;;12.60;8.70;;;9.00;1.00;;;;;;5012099;28;20183;-50
2023/04/06 07:21:57;;;;;;;18.10;9.17;;;9.10;1.00;;;;;;5013474;28;20932;-50
2023/04/06 07:24:22;;;;;;;17.73;8.30;;;9.40;1.00;;;;;;5013003;28;20415;-50
2023/04/06 07:26:48;;;;;;;18.70;8.60;;;9.50;1.00;;;;;;5013603;28;20183;-50
2023/04/06 07:29:14;;;;;;;15.10;9.10;;;9.70;1.00;;;;;;5013345;28;20203;-50
2023/04/06 07:31:39;;;;;;;13.73;8.50;;;10.00;1.00;;;;;;5013559;28;20182;-49
2023/04/06 07:34:05;;;;;;;13.40;8.80;;;10.30;1.00;;;;;;5013638;28;20182;-49
2023/04/06 07:36:31;;;;;;;15.70;9.30;;;10.50;1.00;;;;;;5010521;28;20270;-50
2023/04/06 07:38:56;;;;;;;12.27;8.47;;;10.60;1.00;;;;;;5011577;28;20206;-50
2023/04/06 07:41:22;;;;;;;18.87;9.23;;;10.70;1.00;;;;;;5011250;28;20190;-49
2023/04/06 07:43:48;;;;;;;12.70;9.07;;;10.90;1.00;;;;;;5010798;28;20187;-50
2023/04/06 07:46:13;;;;;;;19.20;8.93;;;10.90;1.00;;;;;;5011048;28;20179;-50
2023/04/06 07:48:39;;;;;;;15.30;8.80;;;11.50;1.00;;;;;;5011045;28;20560;-51
2023/04/06 07:51:06;;;;;;;13.33;8.00;;;12.00;1.00;;;;;;5011111;28;20190;-51
2023/04/06 07:53:32;;;;;;;15.70;7.13;;;12.40;1.00;;;;;;5011107;28;20285;-51
2023/04/06 07:56:00;;;;;;;10.97;7.70;;;12.70;1.00;;;;;;5010911;28;21274;-51
2023/04/06 07:58:26;;;;;;;13.27;7.77;;;12.80;1.00;;;;;;5011795;28;20429;-51
2023/04/06 08:00:52;;;;;;;12.47;8.23;;;12.90;1.00;;;;;;5014785;28;20418;-51
2023/04/06 08:03:17;;;;;;;12.23;8.00;;;12.70;1.00;;;;;;5014598;28;20697;-51
2023/04/06 08:05:43;;;;;;;11.73;7.70;;;12.60;1.00;;;;;;5014972;28;20190;-51
2023/04/06 08:08:09;;;;;;;10.53;7.27;;;12.60;1.00;;;;;;5014491;28;20182;-51
2023/04/06 08:10:35;;;;;;;10.27;7.23;;;12.50;1.00;;;;;;5014716;28;20233;-51
2023/04/06 08:13:00;;;;;;;13.53;7.10;;;12.60;1.00;;;;;;5015234;28;20484;-51
2023/04/06 08:15:26;;;;;;;14.87;8.23;;;12.80;1.00;;;;;;5014715;28;20649;-51
2023/04/06 08:17:52;;;;;;;10.63;7.53;;;13.00;1.00;;;;;;5014766;28;20219;-51
2023/04/06 08:20:18;;;;;;;12.70;7.63;;;13.10;1.00;;;;;;5014938;28;20194;-51
2023/04/06 08:22:43;;;;;;;10.97;7.60;;;12.90;1.00;;;;;;5014668;28;20193;-51
2023/04/06 08:25:09;;;;;;;20.63;8.40;;;13.00;1.00;;;;;;5014838;28;20191;-51
2023/04/06 08:27:35;;;;;;;10.53;7.17;;;13.20;1.00;;;;;;5014898;28;20559;-50
2023/04/06 08:30:01;;;;;;;10.37;7.77;;;13.20;1.00;;;;;;5014616;28;20661;-51
2023/04/06 08:32:27;;;;;;;13.37;8.10;;;13.20;1.00;;;;;;5014364;28;20256;-51
2023/04/06 08:34:55;;;;;;;11.50;8.40;;;13.10;1.00;;;;;;5014466;28;20508;-51
2023/04/06 08:37:22;;;;;;;12.13;8.70;;;13.30;1.00;;;;;;5014183;28;20191;-51
2023/04/06 08:39:47;;;;;;;16.83;8.67;;;13.50;1.00;;;;;;5014164;28;20425;-51
2023/04/06 08:42:24;;;;;;;14.43;8.13;;;13.70;1.00;;;;;;5014187;28;20957;-51
2023/04/06 08:44:52;;;;;;;13.80;8.50;;;14.10;1.00;;;;;;5013802;28;20253;-51
2023/04/06 08:47:18;;;;;;;12.60;7.23;;;14.30;1.00;;;;;;5013887;28;20488;-51
2023/04/06 08:49:45;;;;;;;11.23;7.33;;;14.60;1.00;;;;;;5013590;28;20945;-51
2023/04/06 08:52:11;;;;;;;14.87;8.10;;;14.50;1.00;;;;;;5014068;28;20422;-52
2023/04/06 08:54:37;;;;;;;15.10;7.83;;;14.60;1.00;;;;;;5013940;28;21221;-52
2023/04/06 08:57:04;;;;;;;14.80;8.40;;;14.80;1.00;;;;;;5013733;28;20190;-51
2023/04/06 08:59:31;;;;;;;12.60;7.60;;;14.70;1.00;;;;;;5014194;28;20580;-51
2023/04/06 09:01:57;;;;;;;11.63;6.50;;;14.60;1.00;;;;;;5014023;28;20882;-52
2023/04/06 09:04:23;;;;;;;13.07;8.20;;;14.70;1.00;;;;;;5014001;28;20433;-52
2023/04/06 09:06:49;;;;;;;13.00;7.27;;;15.00;1.00;;;;;;5013819;28;20423;-53
2023/04/06 09:09:15;;;;;;;17.63;7.80;;;15.40;1.00;;;;;;5013603;28;20349;-52
2023/04/06 09:11:50;;;;;;;11.00;7.37;;;15.10;1.00;;;;;;5012987;28;20925;-52
2023/04/06 09:14:16;;;;;;;10.30;6.50;;;15.20;1.00;;;;;;5014099;28;20527;-52
2023/04/06 09:16:45;;;;;;;13.33;6.83;;;15.20;1.00;;;;;;5013950;28;20429;-52
2023/04/06 09:19:12;;;;;;;9.47;7.00;;;14.90;1.00;;;;;;5013749;28;20465;-52
2023/04/06 09:21:39;;;;;;;10.50;7.10;;;14.70;1.00;;;;;;5013603;28;20417;-52
2023/04/06 09:24:07;;;;;;;11.87;6.23;;;14.70;1.00;;;;;;5013592;28;20425;-52
2023/04/06 09:26:45;;;;;;;11.17;6.80;;;14.70;1.00;;;;;;5013828;28;20414;-52
2023/04/06 09:29:21;;;;;;;12.03;6.37;;;14.50;1.00;;;;;;5013315;28;21013;-52
2023/04/06 09:31:47;;;;;;;9.73;6.50;;;14.30;1.00;;;;;;5013711;28;20569;-52
2023/04/06 09:34:23;;;;;;;10.90;6.37;;;13.90;1.00;;;;;;5013541;28;20843;-52
2023/04/06 09:36:49;;;;;;;12.70;6.67;;;13.70;1.00;;;;;;5013553;28;20178;-51
2023/04/06 09:39:15;;;;;;;7.77;5.90;;;13.20;1.00;;;;;;5013461;28;20513;-50
2023/04/06 09:41:40;;;;;;;8.43;6.13;;;12.50;1.00;;;;;;5013258;28;20264;-50
2023/04/06 09:44:13;;;;;;;13.30;7.30;;;12.30;1.00;;;;;;5012498;28;20278;-50
2023/04/06 09:46:39;;;;;;;9.80;6.03;;;12.10;1.00;;;;;;5012925;28;20639;-51
2023/04/06 09:49:06;;;;;;;9.23;5.95;;;12.10;1.00;;;;;;5012321;28;20579;-51
2023/04/06 09:51:37;;;;;;;8.73;6.67;;;12.30;1.00;;;;;;5012993;28;20671;-50
2023/04/06 09:54:05;;;;;;;9.00;5.93;;;12.40;1.00;;;;;;5013421;28;20949;-50
2023/04/06 09:56:39;;;;;;;14.93;6.70;;;12.50;1.00;;;;;;5013071;28;20430;-50
2023/04/06 09:59:12;;;;;;;8.50;5.47;;;12.50;1.00;;;;;;5013116;28;20419;-51
2023/04/06 10:01:39;;;;;;;8.77;5.80;;;12.50;1.00;;;;;;5012813;28;20446;-51
2023/04/06 10:04:07;;;;;;;7.20;5.07;;;12.50;1.00;;;;;;5012600;28;20457;-51
2023/04/06 10:06:35;;;;;;;13.80;5.23;;;12.60;1.00;;;;;;5012936;28;21110;-51
2023/04/06 10:09:03;;;;;;;7.23;5.10;;;12.60;1.00;;;;;;5012381;28;20539;-51
2023/04/06 10:11:30;;;;;;;6.13;5.20;;;12.70;1.00;;;;;;5012658;28;20460;-51
2023/04/06 10:13:56;;;;;;;8.50;5.13;;;12.80;1.00;;;;;;5012516;28;20479;-51
2023/04/06 10:16:23;;;;;;;9.90;5.57;;;12.70;1.00;;;;;;5012849;28;20429;-51
2023/04/06 10:18:54;;;;;;;10.27;5.70;;;12.80;1.00;;;;;;5012318;28;20517;-52
2023/04/06 10:21:25;;;;;;;9.00;5.77;;;12.80;1.00;;;;;;5012559;28;20493;-51
2023/04/06 10:23:53;;;;;;;6.83;5.30;;;13.00;1.00;;;;;;5012665;28;20505;-51
2023/04/06 10:26:22;;;;;;;9.00;6.50;;;13.10;1.00;;;;;;5012504;28;20426;-51
2023/04/06 10:28:49;;;;;;;15.67;5.80;;;13.30;1.00;;;;;;5012721;28;20571;-51
2023/04/06 10:31:15;;;;;;;6.43;5.20;;;13.50;1.00;;;;;;5012615;28;20426;-52
2023/04/06 10:33:41;;;;;;;7.37;5.33;;;13.80;1.00;;;;;;5012741;28;20421;-51
2023/04/06 10:36:15;;;;;;;6.87;5.70;;;13.90;1.00;;;;;;5012890;28;20253;-51
2023/04/06 10:38:41;;;;;;;8.00;5.87;;;13.90;1.00;;;;;;5012221;28;20930;-51
2023/04/06 10:41:09;;;;;;;8.80;5.70;;;14.20;1.00;;;;;;5012529;28;20437;-50
2023/04/06 10:43:36;;;;;;;8.90;5.93;;;14.20;1.00;;;;;;5012453;28;20434;-52
2023/04/06 10:46:04;;;;;;;9.47;6.00;;;14.50;1.00;;;;;;5011823;28;20466;-52
2023/04/06 10:48:56;;;;;;;8.20;5.83;;;14.90;1.00;;;;;;5012043;28;20413;-52
2023/04/06 10:51:27;;;;;;;11.30;5.90;;;15.70;1.00;;;;;;5012056;28;20477;-51
2023/04/06 10:53:54;;;;;;;8.20;5.50;;;16.60;1.00;;;;;;5011801;28;20957;-51
2023/04/06 10:56:22;;;;;;;9.60;6.30;;;16.80;1.00;;;;;;5012138;28;20417;-51
2023/04/06 10:58:51;;;;;;;10.10;7.00;;;16.40;1.00;;;;;;5012259;28;20454;-51
2023/04/06 11:01:17;;;;;;;8.30;6.30;;;16.50;1.00;;;;;;5011681;28;20428;-51
2023/04/06 11:03:44;;;;;;;7.60;6.40;;;16.70;1.00;;;;;;5012113;28;20475;-51
2023/04/06 11:06:10;;;;;;;8.67;6.43;;;17.20;1.00;;;;;;5011835;28;20840;-51
2023/04/06 11:08:37;;;;;;;9.47;6.93;;;17.30;1.00;;;;;;5011879;28;20421;-51
2023/04/06 11:11:10;;;;;;;9.73;6.90;;;17.40;1.00;;;;;;5011973;28;20204;-52
2023/04/06 11:13:46;;;;;;;9.50;6.70;;;17.90;1.00;;;;;;5011482;28;20925;-52
2023/04/06 11:16:17;;;;;;;10.70;6.97;;;18.10;1.00;;;;;;5011913;28;20430;-52
2023/04/06 11:18:59;;;;;;;9.80;7.23;;;18.40;1.00;;;;;;5011645;28;20402;-52
2023/04/06 11:21:47;;;;;;;8.43;6.67;;;18.30;1.00;;;;;;5011730;28;20441;-52
2023/04/06 11:24:14;;;;;;;9.60;7.23;;;18.20;1.00;;;;;;5011822;28;20409;-52
2023/04/06 11:26:48;;;;;;;10.23;7.10;;;18.00;1.00;;;;;;5011461;28;20803;-52
2023/04/06 11:29:16;;;;;;;9.93;7.10;;;18.00;1.00;;;;;;5011600;28;20457;-54
2023/04/06 11:31:46;;;;;;;10.47;7.60;;;18.70;1.00;;;;;;5011466;28;20415;-53
2023/04/06 11:34:28;;;;;;;10.13;7.60;;;19.50;1.00;;;;;;5013987;28;20425;-53
2023/04/06 11:36:58;;;;;;;9.77;8.00;;;19.60;1.00;;;;;;5015702;28;20409;-54
2023/04/06 11:39:26;;;;;;;10.77;8.07;;;19.10;1.00;;;;;;5015319;28;20429;-51
2023/04/06 11:42:00;;;;;;;10.90;7.97;;;18.80;1.00;;;;;;5015662;28;20437;-51
2023/04/06 11:44:32;;;;;;;12.60;8.53;;;18.90;1.00;;;;;;5015146;28;20492;-52
2023/04/06 11:46:59;;;;;;;10.30;8.70;;;18.80;1.00;;;;;;5015190;28;20432;-52
2023/04/06 11:49:32;;;;;;;11.77;7.53;;;19.00;1.00;;;;;;5015384;28;20454;-52
2023/04/06 11:51:59;;;;;;;12.87;8.20;;;19.30;1.00;;;;;;5015112;28;20430;-53
2023/04/06 11:54:35;;;;;;;9.83;7.70;;;19.60;1.00;;;;;;5015190;28;20753;-54
2023/04/06 11:57:04;;;;;;;10.80;8.43;;;19.40;99.90;;;;;;5015234;28;20414;-53
2023/04/06 11:59:31;;;;;;;11.03;8.20;;;19.20;1.00;;;;;;5014922;28;20571;-53
2023/04/06 12:01:57;;;;;;;13.57;8.43;;;19.30;99.90;;;;;;5015202;28;20414;-51
2023/04/06 12:04:23;;;;;;;12.60;8.30;;;19.80;99.90;;;;;;5015121;28;20421;-51
2023/04/06 12:06:49;;;;;;;11.40;8.57;;;20.00;99.90;;;;;;5015005;28;20422;-51
2023/04/06 12:09:17;;;;;;;11.87;8.20;;;20.10;99.90;;;;;;5014643;28;20214;-50
2023/04/06 12:11:43;;;;;;;10.13;8.10;;;20.40;99.90;;;;;;5014722;28;20448;-51
2023/04/06 12:14:09;;;;;;;10.17;8.13;;;19.90;99.90;;;;;;5014840;28;20410;-50
2023/04/06 12:16:35;;;;;;;11.80;8.70;;;19.50;99.90;;;;;;5014699;28;20777;-50
2023/04/06 12:19:01;;;;;;;10.77;9.03;;;19.10;1.00;;;;;;5014890;28;20426;-51
2023/04/06 12:21:28;;;;;;;10.57;8.00;;;19.20;99.90;;;;;;5014875;28;20413;-50
2023/04/06 12:23:54;;;;;;;12.60;7.87;;;19.50;99.90;;;;;;5014839;28;20441;-51
2023/04/06 12:26:21;;;;;;;12.50;8.30;;;19.60;99.90;;;;;;5014475;28;20434;-50
2023/04/06 12:28:47;;;;;;;11.30;8.40;;;19.10;99.90;;;;;;5014584;28;20457;-52
2023/04/06 12:31:21;;;;;;;13.53;8.47;;;19.50;99.90;;;;;;5014673;28;20427;-50
2023/04/06 12:33:48;;;;;;;15.83;8.90;;;18.90;99.90;;;;;;5014505;28;20233;-51
2023/04/06 12:36:18;;;;;;;12.50;7.77;;;19.00;99.90;;;;;;5014598;28;20468;-50
2023/04/06 12:38:46;;;;;;;11.37;8.40;;;19.20;99.90;;;;;;5014341;28;20565;-50
2023/04/06 12:41:12;;;;;;;14.00;9.13;;;19.50;99.90;;;;;;5014496;28;20418;-50
2023/04/06 12:43:41;;;;;;;12.93;8.87;;;19.30;99.90;;;;;;5014483;28;20929;-49
2023/04/06 12:46:07;;;;;;;11.53;8.17;;;19.40;99.90;;;;;;5014747;28;20671;-50